sensor_id;sensor_type;location;lat;lon;timestamp;pressure;altitude;pressure_sealevel;temperature;humidity
42725;BME280;28369;44.046;23.014;2023-03-13T07:41:48;101767.66;;;12.92;36.73
42725;BME280;28369;44.046;23.014;2023-03-13T07:44:14;101542.84;;;11.59;37.39
42725;BME280;28369;44.046;23.014;2023-03-13T07:46:52;102013.41;;;13.96;37.66
42725;BME280;28369;44.046;23.014;2023-03-13T07:49:17;101189.38;;;9.43;36.50
42725;BME280;28369;44.046;23.014;2023-03-13T07:51:45;101245.13;;;9.59;37.13
42725;BME280;28369;44.046;23.014;2023-03-13T07:54:12;101659.16;;;12.15;36.42
42725;BME280;28369;44.046;23.014;2023-03-13T07:56:38;101609.44;;;11.49;36.54
42725;BME280;28369;44.046;23.014;2023-03-13T07:59:04;101578.59;;;11.51;36.98
42725;BME280;28369;44.046;23.014;2023-03-13T08:01:30;101976.88;;;13.90;37.76
42725;BME280;28369;44.046;23.014;2023-03-13T08:03:57;101724.59;;;13.60;37.15
42725;BME280;28369;44.046;23.014;2023-03-13T08:06:26;101743.66;;;13.07;37.02
42725;BME280;28369;44.046;23.014;2023-03-13T08:08:56;101626.56;;;12.74;36.39
42725;BME280;28369;44.046;23.014;2023-03-13T08:11:23;101151.69;;;9.81;36.84
42725;BME280;28369;44.046;23.014;2023-03-13T08:13:50;101764.59;;;13.55;36.64
42725;BME280;28369;44.046;23.014;2023-03-13T08:16:18;101403.38;;;10.87;37.41
42725;BME280;28369;44.046;23.014;2023-03-13T08:18:46;101216.94;;;10.35;35.77
42725;BME280;28369;44.046;23.014;2023-03-13T08:21:18;101732.34;;;13.95;36.06
42725;BME280;28369;44.046;23.014;2023-03-13T08:23:45;101864.91;;;13.68;36.19
42725;BME280;28369;44.046;23.014;2023-03-13T08:26:16;101573.41;;;12.90;35.37
42725;BME280;28369;44.046;23.014;2023-03-13T08:28:43;101595.25;;;13.70;34.94
42725;BME280;28369;44.046;23.014;2023-03-13T08:31:40;101924.44;;;16.22;33.48
42725;BME280;28369;44.046;23.014;2023-03-13T08:34:03;101589.00;;;13.71;33.21
42725;BME280;28369;44.046;23.014;2023-03-13T08:36:30;101820.25;;;14.75;33.21
42725;BME280;28369;44.046;23.014;2023-03-13T08:39:05;101978.56;;;15.46;33.03
42725;BME280;28369;44.046;23.014;2023-03-13T08:41:35;101858.22;;;14.85;33.01
42725;BME280;28369;44.046;23.014;2023-03-13T08:44:02;101485.25;;;12.81;32.79
42725;BME280;28369;44.046;23.014;2023-03-13T08:46:30;101541.94;;;14.07;33.46
42725;BME280;28369;44.046;23.014;2023-03-13T08:48:56;101853.34;;;16.16;32.86
42725;BME280;28369;44.046;23.014;2023-03-13T08:51:24;101476.16;;;14.44;32.39
42725;BME280;28369;44.046;23.014;2023-03-13T08:53:50;101523.75;;;14.65;32.05
42725;BME280;28369;44.046;23.014;2023-03-13T08:56:18;101562.66;;;15.25;31.61
42725;BME280;28369;44.046;23.014;2023-03-13T08:58:49;101893.81;;;17.27;31.09
42725;BME280;28369;44.046;23.014;2023-03-13T09:01:14;101885.53;;;17.30;29.29
42725;BME280;28369;44.046;23.014;2023-03-13T09:03:41;101878.31;;;16.93;32.55
42725;BME280;28369;44.046;23.014;2023-03-13T09:06:08;101788.28;;;16.70;30.92
42725;BME280;28369;44.046;23.014;2023-03-13T09:08:34;101832.09;;;17.33;30.95
42725;BME280;28369;44.046;23.014;2023-03-13T09:11:06;101898.41;;;17.82;31.28
42725;BME280;28369;44.046;23.014;2023-03-13T09:13:35;101620.75;;;15.87;30.67
42725;BME280;28369;44.046;23.014;2023-03-13T09:16:03;101611.94;;;16.16;30.56
42725;BME280;28369;44.046;23.014;2023-03-13T09:18:30;101653.09;;;16.49;31.25
42725;BME280;28369;44.046;23.014;2023-03-13T09:20:56;101367.63;;;14.75;31.12
42725;BME280;28369;44.046;23.014;2023-03-13T09:23:23;101616.13;;;16.66;30.54
42725;BME280;28369;44.046;23.014;2023-03-13T09:25:52;101119.34;;;13.53;31.27
42725;BME280;28369;44.046;23.014;2023-03-13T09:28:18;101220.03;;;13.70;31.36
42725;BME280;28369;44.046;23.014;2023-03-13T09:30:44;101749.31;;;17.28;30.54
42725;BME280;28369;44.046;23.014;2023-03-13T09:33:10;101845.66;;;18.15;29.96
42725;BME280;28369;44.046;23.014;2023-03-13T09:35:37;101475.03;;;15.95;30.76
42725;BME280;28369;44.046;23.014;2023-03-13T09:38:04;101523.34;;;15.89;31.32
42725;BME280;28369;44.046;23.014;2023-03-13T09:40:36;101541.63;;;15.92;32.34
42725;BME280;28369;44.046;23.014;2023-03-13T09:43:02;101224.97;;;14.43;31.28
42725;BME280;28369;44.046;23.014;2023-03-13T09:45:39;101586.28;;;16.54;29.23
42725;BME280;28369;44.046;23.014;2023-03-13T09:48:40;101884.69;;;18.60;29.85
42725;BME280;28369;44.046;23.014;2023-03-13T09:51:23;101906.38;;;18.47;30.23
42725;BME280;28369;44.046;23.014;2023-03-13T09:53:58;101525.06;;;16.28;29.81
42725;BME280;28369;44.046;23.014;2023-03-13T09:56:33;101508.41;;;16.35;29.64
42725;BME280;28369;44.046;23.014;2023-03-13T09:59:10;101524.88;;;16.39;29.38
42725;BME280;28369;44.046;23.014;2023-03-13T10:01:39;101594.22;;;17.01;29.25
42725;BME280;28369;44.046;23.014;2023-03-13T10:04:21;101459.56;;;16.28;29.47
42725;BME280;28369;44.046;23.014;2023-03-13T10:06:49;101230.16;;;14.64;29.02
42725;BME280;28369;44.046;23.014;2023-03-13T10:09:20;101461.84;;;16.13;29.36
42725;BME280;28369;44.046;23.014;2023-03-13T10:14:26;101879.72;;;18.93;29.08
42725;BME280;28369;44.046;23.014;2023-03-13T10:17:01;101583.50;;;17.39;28.96
42725;BME280;28369;44.046;23.014;2023-03-13T10:19:40;101504.91;;;16.72;30.03
42725;BME280;28369;44.046;23.014;2023-03-13T10:22:14;101535.84;;;16.82;28.88
42725;BME280;28369;44.046;23.014;2023-03-13T10:24:55;101857.78;;;18.63;28.31
42725;BME280;28369;44.046;23.014;2023-03-13T10:27:22;101853.56;;;18.79;28.26
42725;BME280;28369;44.046;23.014;2023-03-13T10:29:47;101501.47;;;16.90;29.14
42725;BME280;28369;44.046;23.014;2023-03-13T10:32:15;101836.47;;;19.26;28.36
42725;BME280;28369;44.046;23.014;2023-03-13T10:34:54;101477.91;;;16.49;29.11
42725;BME280;28369;44.046;23.014;2023-03-13T10:37:24;101602.66;;;17.78;27.89
42725;BME280;28369;44.046;23.014;2023-03-13T10:39:50;101823.97;;;19.00;28.40
42725;BME280;28369;44.046;23.014;2023-03-13T10:42:20;101156.56;;;14.87;28.85
42725;BME280;28369;44.046;23.014;2023-03-13T10:44:55;101562.19;;;17.31;27.84
42725;BME280;28369;44.046;23.014;2023-03-13T10:47:22;101187.22;;;14.80;27.66
42725;BME280;28369;44.046;23.014;2023-03-13T10:49:49;101233.75;;;14.73;27.71
42725;BME280;28369;44.046;23.014;2023-03-13T10:52:31;101602.41;;;17.36;27.61
42725;BME280;28369;44.046;23.014;2023-03-13T10:55:01;101825.03;;;18.53;28.54
42725;BME280;28369;44.046;23.014;2023-03-13T10:57:30;101642.84;;;17.75;27.95
42725;BME280;28369;44.046;23.014;2023-03-13T10:59:56;101717.00;;;18.06;27.89
42725;BME280;28369;44.046;23.014;2023-03-13T11:02:37;101588.38;;;17.43;27.74
42725;BME280;28369;44.046;23.014;2023-03-13T11:07:48;101528.81;;;17.54;27.86
42725;BME280;28369;44.046;23.014;2023-03-13T11:10:19;101465.75;;;17.02;27.38
42725;BME280;28369;44.046;23.014;2023-03-13T11:12:47;101093.53;;;15.00;27.83
42725;BME280;28369;44.046;23.014;2023-03-13T11:15:19;101561.56;;;17.91;26.80
42725;BME280;28369;44.046;23.014;2023-03-13T11:20:37;101493.59;;;17.96;27.86
42725;BME280;28369;44.046;23.014;2023-03-13T11:23:26;101222.88;;;15.88;26.76
42725;BME280;28369;44.046;23.014;2023-03-13T11:29:26;101777.41;;;19.47;28.23
42725;BME280;28369;44.046;23.014;2023-03-13T11:31:59;101409.00;;;17.48;27.48
42725;BME280;28369;44.046;23.014;2023-03-13T11:34:41;101449.59;;;17.58;27.82
42725;BME280;28369;44.046;23.014;2023-03-13T11:37:14;101726.97;;;19.54;27.85
42725;BME280;28369;44.046;23.014;2023-03-13T11:48:47;101733.00;;;19.72;29.23
42725;BME280;28369;44.046;23.014;2023-03-13T11:50:51;101224.28;;;16.47;28.90
42725;BME280;28369;44.046;23.014;2023-03-13T11:56:54;101330.50;;;17.35;27.83
42725;BME280;28369;44.046;23.014;2023-03-13T12:04:50;101713.44;;;20.23;27.69
42725;BME280;28369;44.046;23.014;2023-03-13T12:07:34;101528.38;;;18.64;26.83
42725;BME280;28369;44.046;23.014;2023-03-13T12:10:03;101004.59;;;15.44;26.90
42725;BME280;28369;44.046;23.014;2023-03-13T12:12:45;101181.41;;;16.59;26.86
42725;BME280;28369;44.046;23.014;2023-03-13T12:15:28;101648.44;;;19.48;26.81
42725;BME280;28369;44.046;23.014;2023-03-13T12:20:39;100980.06;;;15.42;26.79
42725;BME280;28369;44.046;23.014;2023-03-13T12:23:15;101698.91;;;19.92;26.61
42725;BME280;28369;44.046;23.014;2023-03-13T12:25:46;101200.72;;;16.88;26.70
42725;BME280;28369;44.046;23.014;2023-03-13T12:31:00;100963.06;;;15.26;27.51
42725;BME280;28369;44.046;23.014;2023-03-13T12:33:52;101327.06;;;17.77;27.04
42725;BME280;28369;44.046;23.014;2023-03-13T12:36:34;100998.06;;;15.56;26.63
42725;BME280;28369;44.046;23.014;2023-03-13T12:39:47;101682.66;;;19.77;26.30
42725;BME280;28369;44.046;23.014;2023-03-13T12:42:39;101310.41;;;17.67;26.60
42725;BME280;28369;44.046;23.014;2023-03-13T12:45:17;101245.69;;;16.89;27.54
42725;BME280;28369;44.046;23.014;2023-03-13T12:48:16;101473.41;;;18.55;26.95
42725;BME280;28369;44.046;23.014;2023-03-13T12:51:05;101433.94;;;18.34;26.61
42725;BME280;28369;44.046;23.014;2023-03-13T12:59:10;101189.38;;;16.86;26.32
42725;BME280;28369;44.046;23.014;2023-03-13T13:01:43;101117.38;;;16.89;25.57
42725;BME280;28369;44.046;23.014;2023-03-13T13:04:17;100920.97;;;15.67;25.28
42725;BME280;28369;44.046;23.014;2023-03-13T13:13:45;101268.41;;;17.44;26.58
42725;BME280;28369;44.046;23.014;2023-03-13T13:16:19;101500.72;;;19.16;26.44
42725;BME280;28369;44.046;23.014;2023-03-13T13:18:48;100939.59;;;15.76;25.89
42725;BME280;28369;44.046;23.014;2023-03-13T13:24:49;101299.00;;;18.18;27.31
42725;BME280;28369;44.046;23.014;2023-03-13T13:30:55;101395.28;;;18.80;25.91
42725;BME280;28369;44.046;23.014;2023-03-13T13:36:44;101639.00;;;20.19;25.46
42725;BME280;28369;44.046;23.014;2023-03-13T14:10:45;101275.88;;;18.26;24.51
42725;BME280;28369;44.046;23.014;2023-03-13T14:51:14;101251.91;;;18.18;26.94
42725;BME280;28369;44.046;23.014;2023-03-13T14:54:01;101241.94;;;18.12;26.55
42725;BME280;28369;44.046;23.014;2023-03-13T14:56:38;101107.94;;;17.29;27.45
42725;BME280;28369;44.046;23.014;2023-03-13T14:59:14;101257.38;;;18.08;27.34
42725;BME280;28369;44.046;23.014;2023-03-13T15:01:45;101390.31;;;19.02;27.27
42725;BME280;28369;44.046;23.014;2023-03-13T15:04:16;101293.22;;;18.63;27.04
42725;BME280;28369;44.046;23.014;2023-03-13T15:07:07;101594.97;;;20.24;26.26
42725;BME280;28369;44.046;23.014;2023-03-13T15:09:40;100859.78;;;15.79;26.20
42725;BME280;28369;44.046;23.014;2023-03-13T15:12:20;101527.78;;;19.95;26.09
42725;BME280;28369;44.046;23.014;2023-03-13T15:14:49;101184.38;;;18.03;26.49
42725;BME280;28369;44.046;23.014;2023-03-13T15:17:21;101152.81;;;17.49;25.63
42725;BME280;28369;44.046;23.014;2023-03-13T15:19:53;101144.53;;;17.60;26.94
42725;BME280;28369;44.046;23.014;2023-03-13T15:22:33;101598.47;;;20.24;26.83
42725;BME280;28369;44.046;23.014;2023-03-13T15:24:59;101032.34;;;16.72;27.15
42725;BME280;28369;44.046;23.014;2023-03-13T15:27:26;100990.38;;;16.07;27.21
42725;BME280;28369;44.046;23.014;2023-03-13T15:29:52;100783.81;;;15.09;26.85
42725;BME280;28369;44.046;23.014;2023-03-13T15:32:23;101282.50;;;17.71;26.85
42725;BME280;28369;44.046;23.014;2023-03-13T15:34:50;101141.50;;;16.69;27.07
42725;BME280;28369;44.046;23.014;2023-03-13T15:37:17;101036.97;;;16.10;26.75
42725;BME280;28369;44.046;23.014;2023-03-13T15:39:44;100962.91;;;15.90;26.83
42725;BME280;28369;44.046;23.014;2023-03-13T15:42:11;101102.69;;;16.42;27.21
42725;BME280;28369;44.046;23.014;2023-03-13T15:44:37;101184.09;;;17.20;27.44
42725;BME280;28369;44.046;23.014;2023-03-13T15:47:03;101431.50;;;18.57;27.94
42725;BME280;28369;44.046;23.014;2023-03-13T15:49:28;101107.16;;;16.76;27.61
42725;BME280;28369;44.046;23.014;2023-03-13T15:51:54;101334.06;;;18.21;27.83
42725;BME280;28369;44.046;23.014;2023-03-13T15:54:20;101555.28;;;19.46;28.09
42725;BME280;28369;44.046;23.014;2023-03-13T15:56:46;101310.97;;;17.79;28.51
42725;BME280;28369;44.046;23.014;2023-03-13T15:59:14;101179.69;;;16.76;28.25
42725;BME280;28369;44.046;23.014;2023-03-13T16:01:41;101304.81;;;17.78;27.98
42725;BME280;28369;44.046;23.014;2023-03-13T16:04:10;100839.06;;;14.85;28.23
42725;BME280;28369;44.046;23.014;2023-03-13T16:06:36;101572.06;;;19.39;27.77
42725;BME280;28369;44.046;23.014;2023-03-13T16:09:05;101108.00;;;16.50;27.94
42725;BME280;28369;44.046;23.014;2023-03-13T16:11:31;100913.50;;;15.00;28.28
42725;BME280;28369;44.046;23.014;2023-03-13T16:13:57;101117.88;;;16.14;28.29
42725;BME280;28369;44.046;23.014;2023-03-13T16:16:26;100829.53;;;14.11;28.62
42725;BME280;28369;44.046;23.014;2023-03-13T16:18:54;101297.75;;;17.26;28.64
42725;BME280;28369;44.046;23.014;2023-03-13T16:21:23;101248.19;;;16.91;29.04
42725;BME280;28369;44.046;23.014;2023-03-13T16:23:49;100727.91;;;13.40;29.35
42725;BME280;28369;44.046;23.014;2023-03-13T16:26:20;100776.19;;;13.60;29.42
42725;BME280;28369;44.046;23.014;2023-03-13T16:28:46;100831.75;;;13.78;29.33
42725;BME280;28369;44.046;23.014;2023-03-13T16:31:17;101255.88;;;16.58;29.42
42725;BME280;28369;44.046;23.014;2023-03-13T16:33:43;100894.16;;;14.26;29.32
42725;BME280;28369;44.046;23.014;2023-03-13T16:36:17;101219.88;;;16.37;29.39
42725;BME280;28369;44.046;23.014;2023-03-13T16:38:43;101119.28;;;15.54;29.29
42725;BME280;28369;44.046;23.014;2023-03-13T16:41:17;100753.81;;;13.64;29.12
42725;BME280;28369;44.046;23.014;2023-03-13T16:43:44;101521.31;;;18.46;29.04
42725;BME280;28369;44.046;23.014;2023-03-13T16:46:12;100721.16;;;13.55;29.53
42725;BME280;28369;44.046;23.014;2023-03-13T16:48:38;101328.53;;;16.93;30.06
42725;BME280;28369;44.046;23.014;2023-03-13T16:51:04;101573.72;;;18.46;30.45
42725;BME280;28369;44.046;23.014;2023-03-13T16:53:29;100729.28;;;13.34;30.74
42725;BME280;28369;44.046;23.014;2023-03-13T16:55:55;101228.06;;;16.26;31.01
42725;BME280;28369;44.046;23.014;2023-03-13T16:58:21;101557.34;;;18.33;30.58
42725;BME280;28369;44.046;23.014;2023-03-13T17:00:46;101229.41;;;16.30;30.73
42725;BME280;28369;44.046;23.014;2023-03-13T17:03:12;101270.59;;;16.52;30.68
42725;BME280;28369;44.046;23.014;2023-03-13T17:05:38;101315.63;;;16.98;30.44
42725;BME280;28369;44.046;23.014;2023-03-13T17:08:03;101499.81;;;17.87;30.89
42725;BME280;28369;44.046;23.014;2023-03-13T17:10:31;100990.69;;;14.40;31.13
42725;BME280;28369;44.046;23.014;2023-03-13T17:12:57;101485.81;;;17.59;31.26
42725;BME280;28369;44.046;23.014;2023-03-13T17:15:24;101142.28;;;15.08;31.47
42725;BME280;28369;44.046;23.014;2023-03-13T17:17:50;101312.72;;;16.19;31.37
42725;BME280;28369;44.046;23.014;2023-03-13T17:20:22;101417.53;;;16.97;31.40
42725;BME280;28369;44.046;23.014;2023-03-13T17:22:48;101574.63;;;18.02;31.36
42725;BME280;28369;44.046;23.014;2023-03-13T17:25:14;101429.03;;;16.98;31.63
42725;BME280;28369;44.046;23.014;2023-03-13T17:27:40;101167.56;;;15.20;31.87
42725;BME280;28369;44.046;23.014;2023-03-13T17:30:18;101427.91;;;16.72;32.29
42725;BME280;28369;44.046;23.014;2023-03-13T17:32:44;101163.06;;;15.02;32.31
42725;BME280;28369;44.046;23.014;2023-03-13T17:35:09;101583.81;;;17.54;32.44
42725;BME280;28369;44.046;23.014;2023-03-13T17:37:35;101589.75;;;17.48;32.85
42725;BME280;28369;44.046;23.014;2023-03-13T17:40:01;101292.63;;;15.61;33.00
42725;BME280;28369;44.046;23.014;2023-03-13T17:42:26;101160.06;;;14.78;32.93
42725;BME280;28369;44.046;23.014;2023-03-13T17:44:52;101184.72;;;14.78;33.18
42725;BME280;28369;44.046;23.014;2023-03-13T17:47:20;101585.69;;;17.25;33.41
42725;BME280;28369;44.046;23.014;2023-03-13T17:49:48;101235.41;;;14.93;33.36
42725;BME280;28369;44.046;23.014;2023-03-13T17:52:15;101298.97;;;15.41;33.21
42725;BME280;28369;44.046;23.014;2023-03-13T17:54:42;101149.28;;;14.03;33.59
42725;BME280;28369;44.046;23.014;2023-03-13T17:57:13;101303.50;;;15.20;33.36
42725;BME280;28369;44.046;23.014;2023-03-13T17:59:39;101569.78;;;16.98;33.49
42725;BME280;28369;44.046;23.014;2023-03-13T18:02:10;101425.03;;;16.00;33.71
42725;BME280;28369;44.046;23.014;2023-03-13T18:04:36;101600.47;;;16.72;33.69
42725;BME280;28369;44.046;23.014;2023-03-13T18:07:01;100688.16;;;11.36;33.99
42725;BME280;28369;44.046;23.014;2023-03-13T18:09:28;101444.59;;;15.99;34.01
42725;BME280;28369;44.046;23.014;2023-03-13T18:11:54;101623.34;;;16.93;33.52
42725;BME280;28369;44.046;23.014;2023-03-13T18:14:20;101583.63;;;16.91;33.72
42725;BME280;28369;44.046;23.014;2023-03-13T18:16:47;101316.69;;;15.30;33.44
42725;BME280;28369;44.046;23.014;2023-03-13T18:19:21;101088.47;;;13.63;33.86
42725;BME280;28369;44.046;23.014;2023-03-13T18:21:49;101559.31;;;16.58;33.59
42725;BME280;28369;44.046;23.014;2023-03-13T18:24:15;100761.31;;;11.63;33.99
42725;BME280;28369;44.046;23.014;2023-03-13T18:26:44;101022.22;;;13.16;34.13
42725;BME280;28369;44.046;23.014;2023-03-13T18:29:21;101124.38;;;13.66;34.29
42725;BME280;28369;44.046;23.014;2023-03-13T18:31:59;101232.09;;;14.42;34.16
42725;BME280;28369;44.046;23.014;2023-03-13T18:34:25;101113.47;;;13.40;34.11
42725;BME280;28369;44.046;23.014;2023-03-13T18:36:52;100972.63;;;12.59;34.06
42725;BME280;28369;44.046;23.014;2023-03-13T18:39:18;100757.66;;;11.23;34.05
42725;BME280;28369;44.046;23.014;2023-03-13T18:41:46;101076.66;;;13.58;33.73
42725;BME280;28369;44.046;23.014;2023-03-13T18:44:12;100789.59;;;11.40;33.96
42725;BME280;28369;44.046;23.014;2023-03-13T18:46:43;100923.03;;;12.43;33.92
42725;BME280;28369;44.046;23.014;2023-03-13T18:49:16;100990.28;;;12.69;33.97
42725;BME280;28369;44.046;23.014;2023-03-13T18:51:45;101079.59;;;13.14;34.24
42725;BME280;28369;44.046;23.014;2023-03-13T18:54:12;101325.13;;;14.67;34.08
42725;BME280;28369;44.046;23.014;2023-03-13T18:56:37;100991.56;;;12.74;34.17
42725;BME280;28369;44.046;23.014;2023-03-13T18:59:03;101294.91;;;14.79;34.17
42725;BME280;28369;44.046;23.014;2023-03-13T19:01:30;100753.44;;;11.42;34.61
42725;BME280;28369;44.046;23.014;2023-03-13T19:03:57;101161.94;;;13.89;34.63
42725;BME280;28369;44.046;23.014;2023-03-13T19:06:27;100850.91;;;11.83;34.81
42725;BME280;28369;44.046;23.014;2023-03-13T19:08:58;101192.53;;;13.82;35.15
42725;BME280;28369;44.046;23.014;2023-03-13T19:11:26;100996.03;;;12.84;35.03
42725;BME280;28369;44.046;23.014;2023-03-13T19:13:52;101430.06;;;15.36;35.32
42725;BME280;28369;44.046;23.014;2023-03-13T19:16:28;101155.50;;;13.62;35.26
42725;BME280;28369;44.046;23.014;2023-03-13T19:18:55;101280.00;;;14.49;35.44
42725;BME280;28369;44.046;23.014;2023-03-13T19:21:25;100858.84;;;11.62;35.30
42725;BME280;28369;44.046;23.014;2023-03-13T19:23:52;100881.88;;;11.90;35.17
42725;BME280;28369;44.046;23.014;2023-03-13T19:26:30;101132.41;;;13.55;35.21
42725;BME280;28369;44.046;23.014;2023-03-13T19:28:57;101108.09;;;13.20;35.46
42725;BME280;28369;44.046;23.014;2023-03-13T19:31:24;101552.91;;;15.94;35.66
42725;BME280;28369;44.046;23.014;2023-03-13T19:33:50;101106.53;;;13.08;35.83
42725;BME280;28369;44.046;23.014;2023-03-13T19:36:21;101431.72;;;14.98;35.68
42725;BME280;28369;44.046;23.014;2023-03-13T19:38:48;101104.16;;;13.05;35.80
42725;BME280;28369;44.046;23.014;2023-03-13T19:41:14;100653.56;;;10.25;36.10
42725;BME280;28369;44.046;23.014;2023-03-13T19:43:40;101308.06;;;14.21;36.12
42725;BME280;28369;44.046;23.014;2023-03-13T19:46:27;101199.19;;;13.36;36.17
42725;BME280;28369;44.046;23.014;2023-03-13T19:49:02;100978.66;;;12.09;36.05
42725;BME280;28369;44.046;23.014;2023-03-13T19:51:29;101241.44;;;13.67;36.37
42725;BME280;28369;44.046;23.014;2023-03-13T19:53:55;101306.09;;;13.41;38.69
42725;BME280;28369;44.046;23.014;2023-03-13T19:56:27;101217.25;;;12.25;39.67
42725;BME280;28369;44.046;23.014;2023-03-13T19:58:59;101129.91;;;11.42;40.92
42725;BME280;28369;44.046;23.014;2023-03-13T20:01:24;101574.34;;;14.51;40.46
42725;BME280;28369;44.046;23.014;2023-03-13T20:03:50;101209.56;;;12.33;40.02
42725;BME280;28369;44.046;23.014;2023-03-13T20:06:20;101220.56;;;12.59;40.15
42725;BME280;28369;44.046;23.014;2023-03-13T20:08:47;100983.16;;;11.12;39.49
42725;BME280;28369;44.046;23.014;2023-03-13T20:11:14;100761.63;;;9.65;39.21
42725;BME280;28369;44.046;23.014;2023-03-13T20:13:40;101011.19;;;11.45;38.89
42725;BME280;28369;44.046;23.014;2023-03-13T20:16:07;101369.81;;;13.69;38.51
42725;BME280;28369;44.046;23.014;2023-03-13T20:18:34;101286.38;;;13.24;38.51
42725;BME280;28369;44.046;23.014;2023-03-13T20:20:59;101157.97;;;12.19;38.29
42725;BME280;28369;44.046;23.014;2023-03-13T20:23:25;100872.09;;;10.64;38.07
42725;BME280;28369;44.046;23.014;2023-03-13T20:25:51;101556.09;;;14.79;38.18
42725;BME280;28369;44.046;23.014;2023-03-13T20:28:16;101282.66;;;13.27;37.88
42725;BME280;28369;44.046;23.014;2023-03-13T20:30:42;100989.16;;;11.46;38.10
42725;BME280;28369;44.046;23.014;2023-03-13T20:33:11;101391.25;;;13.76;38.29
42725;BME280;28369;44.046;23.014;2023-03-13T20:35:38;100901.59;;;10.79;38.45
42725;BME280;28369;44.046;23.014;2023-03-13T20:38:04;100822.84;;;9.89;38.44
42725;BME280;28369;44.046;23.014;2023-03-13T20:40:32;101241.28;;;12.85;38.63
42725;BME280;28369;44.046;23.014;2023-03-13T20:42:58;101063.19;;;11.97;38.35
42725;BME280;28369;44.046;23.014;2023-03-13T20:45:23;101310.69;;;13.18;38.32
42725;BME280;28369;44.046;23.014;2023-03-13T20:47:49;101260.53;;;12.97;38.12
42725;BME280;28369;44.046;23.014;2023-03-13T20:50:15;101131.56;;;11.98;38.22
42725;BME280;28369;44.046;23.014;2023-03-13T20:52:41;101391.50;;;13.73;38.29
42725;BME280;28369;44.046;23.014;2023-03-13T20:55:06;101522.31;;;14.61;38.18
42725;BME280;28369;44.046;23.014;2023-03-13T20:57:35;101122.47;;;11.91;38.21
42725;BME280;28369;44.046;23.014;2023-03-13T21:00:00;101110.66;;;11.74;38.40
42725;BME280;28369;44.046;23.014;2023-03-13T21:02:26;101516.81;;;14.43;38.53
42725;BME280;28369;44.046;23.014;2023-03-13T21:04:51;100914.03;;;10.66;39.39
42725;BME280;28369;44.046;23.014;2023-03-13T21:07:17;101513.75;;;14.17;40.02
42725;BME280;28369;44.046;23.014;2023-03-13T21:09:43;101438.84;;;13.55;40.31
42725;BME280;28369;44.046;23.014;2023-03-13T21:12:08;101192.94;;;10.98;42.32
42725;BME280;28369;44.046;23.014;2023-03-13T21:14:34;100995.84;;;10.16;41.59
42725;BME280;28369;44.046;23.014;2023-03-13T21:17:02;101491.19;;;12.51;42.65
42725;BME280;28369;44.046;23.014;2023-03-13T21:19:28;100948.50;;;8.87;42.87
42725;BME280;28369;44.046;23.014;2023-03-13T21:21:54;100582.97;;;6.47;43.42
42725;BME280;28369;44.046;23.014;2023-03-13T21:24:20;100786.66;;;7.66;43.37
42725;BME280;28369;44.046;23.014;2023-03-13T21:26:45;100622.06;;;7.13;42.86
42725;BME280;28369;44.046;23.014;2023-03-13T21:29:11;101154.47;;;9.91;43.36
42725;BME280;28369;44.046;23.014;2023-03-13T21:31:37;100569.38;;;6.29;43.30
42725;BME280;28369;44.046;23.014;2023-03-13T21:34:03;101186.16;;;10.49;42.97
42725;BME280;28369;44.046;23.014;2023-03-13T21:36:29;101171.94;;;10.27;43.52
42725;BME280;28369;44.046;23.014;2023-03-13T21:38:54;101386.50;;;11.61;43.31
42725;BME280;28369;44.046;23.014;2023-03-13T21:41:21;100636.78;;;7.01;43.06
42725;BME280;28369;44.046;23.014;2023-03-13T21:43:47;100647.75;;;7.19;42.73
42725;BME280;28369;44.046;23.014;2023-03-13T21:46:14;101329.50;;;11.37;42.73
42725;BME280;28369;44.046;23.014;2023-03-13T21:48:42;101067.56;;;9.58;42.63
42725;BME280;28369;44.046;23.014;2023-03-13T21:51:09;101160.25;;;10.67;42.38
42725;BME280;28369;44.046;23.014;2023-03-13T21:53:36;100654.66;;;7.70;41.49
42725;BME280;28369;44.046;23.014;2023-03-13T21:56:03;100963.72;;;9.90;41.32
42725;BME280;28369;44.046;23.014;2023-03-13T21:58:29;100673.03;;;8.06;41.15
42725;BME280;28369;44.046;23.014;2023-03-13T22:00:55;101194.41;;;11.36;41.17
42725;BME280;28369;44.046;23.014;2023-03-13T22:03:22;100609.00;;;7.50;41.65
42725;BME280;28369;44.046;23.014;2023-03-13T22:05:47;101149.16;;;10.86;41.82
42725;BME280;28369;44.046;23.014;2023-03-13T22:08:13;100973.44;;;9.65;41.91
42725;BME280;28369;44.046;23.014;2023-03-13T22:10:39;101206.47;;;10.94;41.99
42725;BME280;28369;44.046;23.014;2023-03-13T22:13:06;100858.09;;;8.68;41.94
42725;BME280;28369;44.046;23.014;2023-03-13T22:15:32;101229.53;;;11.01;42.04
42725;BME280;28369;44.046;23.014;2023-03-13T22:17:58;101106.53;;;9.76;43.29
42725;BME280;28369;44.046;23.014;2023-03-13T22:20:25;100703.81;;;7.15;43.42
42725;BME280;28369;44.046;23.014;2023-03-13T22:22:50;100681.13;;;7.16;43.19
42725;BME280;28369;44.046;23.014;2023-03-13T22:25:16;101170.13;;;10.16;44.16
42725;BME280;28369;44.046;23.014;2023-03-13T22:27:42;100606.41;;;6.74;44.13
42725;BME280;28369;44.046;23.014;2023-03-13T22:30:09;101495.34;;;11.97;44.63
42725;BME280;28369;44.046;23.014;2023-03-13T22:32:35;101061.94;;;9.39;44.35
42725;BME280;28369;44.046;23.014;2023-03-13T22:35:01;101465.88;;;12.03;44.07
42725;BME280;28369;44.046;23.014;2023-03-13T22:37:26;101154.94;;;10.20;43.74
42725;BME280;28369;44.046;23.014;2023-03-13T22:39:53;101244.28;;;10.20;44.52